Time;durP1;ratioP1;P1;durP2;ratioP2;P2;SDS_P1;SDS_P2;PMS_P1;PMS_P2;Temp;Humidity;BMP_temperature;BMP_pressure;BME280_temperature;BME280_humidity;BME280_pressure;Samples;Min_cycle;Max_cycle;Signal;HPM_P1;HPM_P2
2021/12/02 00:01:08;;;;;;;4.97;1.27;;;;;;;-0.65;75.13;96088.03;5092872;28;20028;-65
2021/12/02 00:03:35;;;;;;;1.52;1.10;;;;;;;-0.64;74.81;96096.59;5092924;28;20043;-64
2021/12/02 00:06:00;;;;;;;2.08;1.27;;;;;;;-0.69;74.70;96094.03;5092801;28;20481;-65
2021/12/02 00:08:26;;;;;;;1.70;1.60;;;;;;;-0.85;75.39;96097.47;5092672;28;20028;-64
2021/12/02 00:10:52;;;;;;;2.15;1.83;;;;;;;-0.83;76.56;96093.19;5093143;28;20023;-64
2021/12/02 00:13:22;;;;;;;5.13;3.00;;;;;;;-0.87;76.54;96087.19;5096594;28;20038;-65
2021/12/02 00:15:55;;;;;;;1.85;1.58;;;;;;;-0.79;76.09;96085.47;5096631;28;20028;-67
2021/12/02 00:21:05;;;;;;;1.88;1.35;;;;;;;-0.87;75.50;96089.78;5096565;28;20414;-65
2021/12/02 00:23:35;;;;;;;1.60;1.20;;;;;;;-0.94;76.37;96095.72;5096315;28;20035;-67
2021/12/02 00:26:09;;;;;;;2.92;1.27;;;;;;;-0.92;76.09;96087.19;5096216;28;20024;-63
2021/12/02 00:28:37;;;;;;;1.35;1.25;;;;;;;-0.93;76.20;96095.72;5096348;28;20073;-64
2021/12/02 00:31:02;;;;;;;1.80;1.50;;;;;;;-0.93;76.07;96093.16;5096269;28;20024;-63
2021/12/02 00:33:30;;;;;;;4.05;1.55;;;;;;;-0.87;75.82;96101.75;5096145;28;20020;-65
2021/12/02 00:35:56;;;;;;;3.03;1.80;;;;;;;-0.85;76.05;96100.88;5096094;28;20024;-65
2021/12/02 00:38:24;;;;;;;1.50;1.13;;;;;;;-0.86;75.52;96109.44;5096138;28;20469;-66
2021/12/02 00:40:50;;;;;;;2.75;1.58;;;;;;;-1.00;75.98;96106.03;5096110;28;20016;-65
2021/12/02 00:43:17;;;;;;;2.28;1.67;;;;;;;-0.97;76.80;96103.47;5095900;28;20032;-63
2021/12/02 00:45:44;;;;;;;2.38;1.60;;;;;;;-0.93;76.71;96102.59;5095903;28;20025;-66
2021/12/02 00:48:12;;;;;;;2.45;1.10;;;;;;;-0.99;76.24;96095.75;5095801;28;20474;-68
2021/12/02 00:50:40;;;;;;;1.55;1.20;;;;;;;-1.04;75.95;96092.31;5095720;28;20039;-67
2021/12/02 00:53:07;;;;;;;9.00;1.40;;;;;;;-1.13;76.27;96092.31;5095854;28;20401;-64
2021/12/02 00:55:37;;;;;;;1.85;1.08;;;;;;;-1.21;76.82;96088.00;5095673;28;20427;-66
2021/12/02 00:58:04;;;;;;;3.78;0.93;;;;;;;-1.17;77.01;96081.19;5095744;28;20024;-67
2021/12/02 01:00:30;;;;;;;4.28;1.38;;;;;;;-1.16;76.67;96076.06;5095609;28;20032;-68
2021/12/02 01:02:59;;;;;;;1.85;1.25;;;;;;;-1.14;77.07;96068.34;5095753;28;20493;-67
2021/12/02 01:05:25;;;;;;;1.67;1.20;;;;;;;-1.15;76.74;96059.78;5095673;28;20107;-65
2021/12/02 01:07:52;;;;;;;2.72;1.17;;;;;;;-1.18;76.84;96061.47;5095424;28;20028;-63
2021/12/02 01:10:20;;;;;;;4.18;1.65;;;;;;;-1.25;77.40;96064.91;5095450;28;20046;-67
2021/12/02 01:12:46;;;;;;;1.30;1.00;;;;;;;-1.22;77.32;96068.34;5095460;28;20047;-67
2021/12/02 01:15:13;;;;;;;7.32;1.25;;;;;;;-1.13;77.08;96075.19;5095433;28;20466;-65
2021/12/02 01:17:39;;;;;;;1.17;1.08;;;;;;;-1.09;77.30;96081.19;5095215;28;20025;-67
2021/12/02 01:20:05;;;;;;;1.45;1.00;;;;;;;-1.05;76.69;96077.78;5095178;28;20295;-64
2021/12/02 01:22:34;;;;;;;2.97;1.33;;;;;;;-1.04;76.26;96080.34;5094787;28;20048;-66
2021/12/02 01:25:01;;;;;;;6.88;4.05;;;;;;;-1.01;76.40;96082.03;5095237;28;20046;-66
2021/12/02 01:27:27;;;;;;;5.72;3.15;;;;;;;-1.07;76.48;96082.91;5095183;28;20024;-63
2021/12/02 01:29:53;;;;;;;8.68;1.77;;;;;;;-1.12;75.95;96073.50;5095011;28;20020;-65
2021/12/02 01:32:20;;;;;;;16.83;13.70;;;;;;;-1.20;76.71;96073.47;5095086;28;20506;-67
2021/12/02 01:34:47;;;;;;;5.90;5.30;;;;;;;-1.19;76.52;96063.22;5095047;28;20059;-65
2021/12/02 01:37:14;;;;;;;2.22;1.85;;;;;;;-1.22;76.44;96062.34;5094982;28;20103;-65
2021/12/02 01:39:41;;;;;;;1.70;1.42;;;;;;;-1.32;77.30;96061.50;5094798;28;20047;-65
2021/12/02 01:42:13;;;;;;;1.35;1.25;;;;;;;-1.32;77.48;96062.31;5094839;28;20032;-66
2021/12/02 01:44:41;;;;;;;1.50;1.27;;;;;;;-1.32;77.05;96067.47;5094863;28;20124;-65
2021/12/02 01:47:14;;;;;;;1.98;1.50;;;;;;;-1.30;77.30;96065.75;5094743;28;20016;-66
2021/12/02 01:49:43;;;;;;;2.30;1.45;;;;;;;-1.27;77.58;96062.34;5094799;28;20024;-63
2021/12/02 01:52:14;;;;;;;0.93;0.80;;;;;;;-1.41;77.55;96063.16;5094769;28;20027;-64
2021/12/02 01:54:44;;;;;;;1.85;1.42;;;;;;;-1.48;77.69;96060.63;5094680;28;20032;-63
2021/12/02 01:57:29;;;;;;;1.63;1.48;;;;;;;-1.55;77.92;96052.91;5094576;28;20470;-64
2021/12/02 02:00:15;;;;;;;4.55;1.70;;;;;;;-1.53;77.69;96040.91;5094475;28;20024;-66
2021/12/02 02:02:41;;;;;;;4.25;1.40;;;;;;;-1.51;77.86;96030.66;5094638;28;20489;-64
2021/12/02 02:05:12;;;;;;;1.25;1.15;;;;;;;-1.48;77.83;96035.78;5094487;28;20369;-65
2021/12/02 02:07:56;;;;;;;;;;;;;;;-1.47;77.74;96036.66;5094913;28;20032;-64
2021/12/02 02:10:22;;;;;;;2.42;1.48;;;;;;;-1.46;78.20;96041.78;5094278;28;20390;-66
2021/12/02 02:12:47;;;;;;;4.75;1.52;;;;;;;-1.45;77.70;96035.78;5094202;28;20097;-63
2021/12/02 02:15:13;;;;;;;2.60;1.83;;;;;;;-1.38;77.80;96046.06;5094300;28;20017;-65
2021/12/02 02:18:41;;;;;;;2.65;1.58;;;;;;;-1.33;77.19;96047.78;5094142;28;20056;-64
2021/12/02 02:21:03;;;;;;;3.55;1.83;;;;;;;-1.33;76.83;96052.94;5088854;28;20381;-67
2021/12/02 02:23:32;;;;;;;2.17;1.58;;;;;;;-1.37;76.56;96052.91;5094202;28;20027;-66
2021/12/02 02:25:59;;;;;;;3.67;2.20;;;;;;;-1.40;76.91;96048.63;5093979;28;20016;-64
2021/12/02 02:28:26;;;;;;;4.20;1.70;;;;;;;-1.47;77.02;96057.19;5094065;28;20505;-64
2021/12/02 02:30:51;;;;;;;2.60;1.80;;;;;;;-1.46;77.16;96041.78;5093961;28;20475;-65
2021/12/02 02:33:19;;;;;;;1.80;1.55;;;;;;;-1.55;77.34;96032.38;5093860;28;20016;-66
2021/12/02 02:35:45;;;;;;;1.73;1.58;;;;;;;-1.45;77.37;96048.63;5093075;28;20042;-63
2021/12/02 02:38:13;;;;;;;2.08;1.60;;;;;;;-1.41;77.05;96034.09;5093870;28;20390;-64
2021/12/02 02:40:41;;;;;;;1.67;1.40;;;;;;;-1.43;77.18;96028.97;5093779;28;20066;-64
2021/12/02 02:43:08;;;;;;;1.50;1.40;;;;;;;-1.46;77.30;96025.53;5093692;28;20438;-64
2021/12/02 02:45:35;;;;;;;3.30;1.60;;;;;;;-1.47;77.16;96027.25;5093685;28;20020;-63
2021/12/02 02:48:01;;;;;;;2.42;1.73;;;;;;;-1.49;77.11;96023.81;5093678;28;20043;-65
2021/12/02 02:50:29;;;;;;;2.42;1.60;;;;;;;-1.47;77.16;96034.97;5093547;28;20513;-64
2021/12/02 02:53:03;;;;;;;1.95;1.42;;;;;;;-1.46;76.90;96040.94;5093636;28;20024;-66
2021/12/02 02:55:29;;;;;;;2.55;1.80;;;;;;;-1.43;76.71;96040.94;5093569;28;20057;-61
2021/12/02 02:58:27;;;;;;;3.30;1.90;;;;;;;-1.46;76.54;96041.78;5093626;28;20035;-63
2021/12/02 03:01:01;;;;;;;2.30;2.10;;;;;;;-1.52;77.71;96046.91;5093189;28;20051;-67
2021/12/02 03:08:47;;;;;;;1.52;1.38;;;;;;;-1.54;77.40;96044.34;5093477;28;20024;-63
2021/12/02 03:11:13;;;;;;;1.95;1.65;;;;;;;-1.55;77.13;96041.78;5093399;28;20410;-65
2021/12/02 03:13:48;;;;;;;3.45;1.67;;;;;;;-1.65;77.36;96039.19;5093180;28;20471;-63
2021/12/02 03:18:57;;;;;;;3.20;2.33;;;;;;;-1.63;77.90;96043.47;5093508;28;20143;-65
2021/12/02 03:21:24;;;;;;;3.08;1.75;;;;;;;-1.61;77.94;96047.75;5092896;28;20549;-66
2021/12/02 03:23:55;;;;;;;5.72;2.30;;;;;;;-1.67;77.85;96046.03;5093337;28;20016;-66
2021/12/02 03:26:21;;;;;;;2.72;2.05;;;;;;;-1.76;78.42;96048.56;5093323;28;20032;-66
2021/12/02 03:28:48;;;;;;;8.35;2.78;;;;;;;-1.74;78.80;96053.69;5093285;28;20032;-64
2021/12/02 03:31:14;;;;;;;2.97;1.85;;;;;;;-1.71;77.94;96052.00;5093161;28;20111;-63
2021/12/02 03:33:41;;;;;;;3.00;2.38;;;;;;;-1.68;78.16;96053.72;5093179;28;20470;-63
2021/12/02 03:36:08;;;;;;;4.03;2.22;;;;;;;-1.73;77.92;96052.84;5092967;28;20028;-67
2021/12/02 03:38:33;;;;;;;3.40;2.00;;;;;;;-1.73;78.18;96045.16;5093029;28;20020;-63
2021/12/02 03:40:59;;;;;;;2.75;2.03;;;;;;;-1.72;77.52;96040.03;5093079;28;20025;-64
2021/12/02 03:43:27;;;;;;;6.57;2.70;;;;;;;-1.81;78.22;96040.00;5091726;28;20027;-68
2021/12/02 03:45:53;;;;;;;8.13;2.28;;;;;;;-1.84;78.48;96040.84;5093422;28;20055;-63
2021/12/02 03:48:19;;;;;;;3.75;2.38;;;;;;;-1.76;78.34;96048.56;5097185;28;20055;-66
2021/12/02 03:50:44;;;;;;;2.85;2.05;;;;;;;-1.74;77.96;96046.88;5097046;28;20469;-64
2021/12/02 03:53:10;;;;;;;3.72;2.20;;;;;;;-1.69;77.63;96050.28;5096950;28;20024;-64
2021/12/02 03:55:35;;;;;;;5.57;2.40;;;;;;;-1.72;77.50;96052.84;5096941;28;20020;-65
2021/12/02 03:58:01;;;;;;;7.38;2.55;;;;;;;-1.85;78.30;96054.53;5096895;28;20462;-66
2021/12/02 04:00:26;;;;;;;3.10;2.22;;;;;;;-1.86;78.39;96041.69;5096748;28;20031;-68
2021/12/02 04:02:52;;;;;;;4.72;2.33;;;;;;;-1.87;78.59;96040.00;5096906;28;20029;-67
2021/12/02 04:05:18;;;;;;;3.70;2.50;;;;;;;-1.93;78.71;96038.25;5095406;28;20073;-66
2021/12/02 04:07:43;;;;;;;5.30;3.08;;;;;;;-2.00;79.11;96034.81;5096780;28;20056;-65
2021/12/02 04:10:09;;;;;;;3.53;2.53;;;;;;;-1.93;78.82;96045.94;5096779;28;20024;-64
2021/12/02 04:12:53;;;;;;;6.78;2.70;;;;;;;-1.93;79.21;96046.81;5096689;28;20043;-63
2021/12/02 04:15:25;;;;;;;4.18;2.50;;;;;;;-1.85;79.16;96051.09;5096644;28;20028;-65
2021/12/02 04:17:52;;;;;;;2.38;2.17;;;;;;;-1.78;78.02;96052.81;5096667;28;20032;-67
2021/12/02 04:20:20;;;;;;;2.80;1.98;;;;;;;-1.76;77.35;96050.25;5096388;28;20445;-64
2021/12/02 04:22:46;;;;;;;3.85;2.53;;;;;;;-1.83;77.27;96050.28;5096250;28;20397;-67
2021/12/02 04:25:14;;;;;;;4.88;2.90;;;;;;;-1.83;77.30;96050.28;5096431;28;20107;-64
2021/12/02 04:27:40;;;;;;;3.58;2.50;;;;;;;-1.83;76.92;96039.16;5096265;28;20023;-65
2021/12/02 04:30:09;;;;;;;3.30;2.33;;;;;;;-1.79;76.71;96046.84;5096330;28;20024;-64
2021/12/02 04:32:34;;;;;;;9.85;2.83;;;;;;;-1.80;76.52;96052.81;5096324;28;20020;-67
2021/12/02 04:35:00;;;;;;;4.95;2.90;;;;;;;-1.84;76.47;96055.41;5096197;28;20378;-64
2021/12/02 04:37:26;;;;;;;4.05;2.85;;;;;;;-1.81;76.91;96057.94;5096266;28;20025;-65
2021/12/02 04:39:51;;;;;;;4.80;3.83;;;;;;;-1.78;77.08;96058.81;5095973;28;20543;-65
2021/12/02 04:42:17;;;;;;;4.82;2.65;;;;;;;-1.74;76.84;96051.13;5096042;28;20020;-67
2021/12/02 04:44:42;;;;;;;4.47;2.63;;;;;;;-1.83;76.42;96049.41;5095955;28;20027;-64
2021/12/02 04:47:08;;;;;;;5.63;3.20;;;;;;;-1.85;76.48;96062.22;5096014;28;20102;-67
2021/12/02 04:49:35;;;;;;;4.10;2.88;;;;;;;-1.85;76.75;96059.66;5095870;28;20385;-68
2021/12/02 04:52:01;;;;;;;4.85;3.38;;;;;;;-1.91;77.24;96069.88;5095920;28;20024;-65
2021/12/02 04:54:26;;;;;;;12.68;4.18;;;;;;;-1.89;77.45;96067.31;5095856;28;20043;-66
2021/12/02 04:56:53;;;;;;;5.07;3.22;;;;;;;-1.91;77.26;96073.31;5095727;28;20032;-64
2021/12/02 04:59:18;;;;;;;7.28;4.03;;;;;;;-2.07;77.99;96074.97;5094631;28;20048;-65
2021/12/02 05:01:44;;;;;;;7.90;4.30;;;;;;;-1.97;78.30;96075.84;5095628;28;20052;-63
2021/12/02 05:04:10;;;;;;;6.60;3.38;;;;;;;-2.06;77.96;96078.38;5095771;28;20138;-66
2021/12/02 05:06:35;;;;;;;7.70;4.45;;;;;;;-2.08;78.20;96082.66;5095607;28;20024;-65
2021/12/02 05:09:01;;;;;;;14.57;10.05;;;;;;;-2.04;78.08;96081.81;5095601;28;20028;-66
2021/12/02 05:11:27;;;;;;;9.77;6.93;;;;;;;-2.01;77.68;96079.25;5095514;28;20047;-68
2021/12/02 05:13:53;;;;;;;5.55;4.03;;;;;;;-2.02;77.13;96069.84;5095561;28;20470;-62
2021/12/02 05:16:18;;;;;;;8.38;2.90;;;;;;;-2.00;76.85;96068.16;5095423;28;20017;-67
2021/12/02 05:18:44;;;;;;;7.85;3.05;;;;;;;-2.13;77.02;96059.56;5095300;28;20024;-63
2021/12/02 05:21:09;;;;;;;6.93;3.60;;;;;;;-2.07;77.41;96066.41;5095182;28;20055;-67
2021/12/02 05:23:35;;;;;;;7.55;3.85;;;;;;;-2.09;77.55;96068.97;5095481;28;20024;-67
2021/12/02 05:26:01;;;;;;;5.78;3.92;;;;;;;-2.12;77.68;96063.81;5095367;28;20024;-64
2021/12/02 05:28:27;;;;;;;6.63;4.22;;;;;;;-2.13;78.33;96062.13;5095169;28;20023;-65
2021/12/02 05:30:53;;;;;;;9.88;3.95;;;;;;;-2.18;78.20;96064.66;5095390;28;20382;-65
2021/12/02 05:33:18;;;;;;;6.93;3.47;;;;;;;-2.12;77.97;96068.09;5095025;28;20047;-63
2021/12/02 05:35:45;;;;;;;7.25;4.10;;;;;;;-2.13;77.86;96059.56;5094963;28;20063;-67
2021/12/02 05:38:11;;;;;;;10.32;4.10;;;;;;;-2.12;78.34;96058.69;5094933;28;20092;-63
2021/12/02 05:40:37;;;;;;;9.90;3.72;;;;;;;-2.09;78.06;96068.97;5094901;28;20036;-66
2021/12/02 05:43:03;;;;;;;6.22;3.97;;;;;;;-2.04;78.00;96067.25;5094837;28;20503;-64
2021/12/02 05:45:29;;;;;;;6.05;3.55;;;;;;;-2.10;77.96;96067.25;5094900;28;20389;-66
2021/12/02 05:47:55;;;;;;;10.23;4.47;;;;;;;-2.05;77.88;96077.50;5094750;28;20484;-65
2021/12/02 05:50:21;;;;;;;7.18;3.80;;;;;;;-2.01;77.56;96075.84;5094614;28;20433;-65
2021/12/02 05:52:47;;;;;;;6.43;3.80;;;;;;;-1.94;77.27;96078.44;5094692;28;20043;-65
2021/12/02 05:55:13;;;;;;;9.93;4.07;;;;;;;-1.88;76.98;96076.72;5094677;28;20470;-67
2021/12/02 05:57:39;;;;;;;7.97;4.63;;;;;;;-1.83;76.86;96069.91;5094629;28;20031;-64
2021/12/02 06:00:07;;;;;;;9.55;3.95;;;;;;;-1.84;76.70;96073.34;5094413;28;20056;-61
2021/12/02 06:02:36;;;;;;;5.53;3.60;;;;;;;-1.81;76.42;96081.88;5094431;28;20032;-64
2021/12/02 06:05:01;;;;;;;6.32;3.83;;;;;;;-1.76;76.45;96071.66;5094477;28;20077;-65
2021/12/02 06:07:27;;;;;;;9.25;4.50;;;;;;;-1.12;77.14;96079.47;5094414;28;20530;-65
2021/12/02 06:09:53;;;;;;;5.28;3.22;;;;;;;0.62;73.64;96075.59;5094240;28;20486;-64
2021/12/02 06:12:19;;;;;;;2.97;2.45;;;;;;;2.42;67.73;96085.97;5094358;28;20024;-63
2021/12/02 06:14:44;;;;;;;6.40;3.25;;;;;;;4.16;62.15;96072.78;5094191;28;20028;-64
2021/12/02 06:17:10;;;;;;;6.07;2.20;;;;;;;5.97;56.50;96070.34;5094359;28;20462;-68
2021/12/02 06:19:36;;;;;;;4.88;2.95;;;;;;;7.44;50.16;96063.44;5094089;28;20038;-63
2021/12/02 06:22:02;;;;;;;5.20;2.83;;;;;;;8.77;46.98;96072.69;5093850;28;20051;-62
2021/12/02 06:24:30;;;;;;;7.35;2.25;;;;;;;9.97;43.57;96075.72;5094030;28;20055;-65
2021/12/02 06:26:56;;;;;;;5.03;2.42;;;;;;;11.15;41.67;96078.38;5094103;28;20497;-65
2021/12/02 06:29:22;;;;;;;3.15;2.33;;;;;;;12.21;38.50;96079.31;5093982;28;20035;-65
2021/12/02 06:31:48;;;;;;;6.45;3.00;;;;;;;13.22;36.56;96074.84;5093928;28;20028;-66
2021/12/02 06:34:14;;;;;;;5.40;2.67;;;;;;;14.09;34.66;96071.69;5093901;28;20099;-67
2021/12/02 06:36:39;;;;;;;3.55;2.22;;;;;;;14.50;33.73;96080.63;5094019;28;20028;-64
2021/12/02 06:39:06;;;;;;;2.78;2.30;;;;;;;15.05;32.88;96075.50;5093805;28;20032;-63
2021/12/02 06:41:33;;;;;;;5.47;2.50;;;;;;;15.58;32.24;96074.78;5093731;28;20044;-64
2021/12/02 06:43:59;;;;;;;3.53;2.47;;;;;;;16.34;30.94;96079.47;5093710;28;20426;-65
2021/12/02 06:46:24;;;;;;;2.25;1.90;;;;;;;16.91;30.28;96079.09;5093627;28;20023;-61
2021/12/02 06:48:50;;;;;;;3.33;2.20;;;;;;;17.59;29.37;96072.53;5093637;28;20355;-67
2021/12/02 06:51:18;;;;;;;4.35;2.40;;;;;;;18.06;29.12;96073.41;5093789;28;20021;-69
2021/12/02 06:53:44;;;;;;;4.88;2.80;;;;;;;18.51;28.10;96074.47;5093560;28;20382;-67
2021/12/02 06:56:10;;;;;;;5.25;2.60;;;;;;;18.80;28.00;96071.38;5093407;28;20028;-66
2021/12/02 06:58:35;;;;;;;4.05;2.30;;;;;;;19.13;27.58;96074.13;5093426;28;20038;-63
2021/12/02 07:01:01;;;;;;;3.20;2.35;;;;;;;19.53;27.09;96055.94;5093485;28;20035;-68
2021/12/02 07:03:27;;;;;;;3.80;2.22;;;;;;;19.94;26.52;96056.97;5093458;28;20097;-65
2021/12/02 07:05:53;;;;;;;3.45;2.10;;;;;;;20.08;25.77;96058.47;5093427;28;20039;-64
2021/12/02 07:08:20;;;;;;;2.83;2.45;;;;;;;20.08;26.06;96060.31;5093556;28;20077;-67
2021/12/02 07:10:45;;;;;;;3.38;2.33;;;;;;;19.95;26.01;96058.66;5093417;28;20351;-65
2021/12/02 07:13:11;;;;;;;3.97;2.30;;;;;;;20.37;26.24;96061.44;5093278;28;20486;-64
2021/12/02 07:15:43;;;;;;;3.58;2.80;;;;;;;20.60;25.90;96061.28;5093066;28;20031;-66
2021/12/02 07:18:13;;;;;;;6.85;2.83;;;;;;;21.14;25.56;96053.94;5093228;28;20540;-68
2021/12/02 07:20:39;;;;;;;3.75;2.78;;;;;;;21.36;24.96;96061.81;5092432;28;20428;-64
2021/12/02 07:23:05;;;;;;;5.32;3.10;;;;;;;21.11;25.38;96064.00;5093239;28;20056;-61
2021/12/02 07:25:32;;;;;;;3.33;2.65;;;;;;;21.02;25.49;96057.69;5093113;28;20024;-65
2021/12/02 07:27:57;;;;;;;4.82;3.60;;;;;;;21.52;25.27;96055.97;5093089;28;20024;-66
2021/12/02 07:30:23;;;;;;;9.48;4.43;;;;;;;21.67;24.55;96054.56;5091981;28;20039;-68
2021/12/02 07:32:54;;;;;;;4.85;3.47;;;;;;;21.83;23.94;96048.69;5093179;28;20020;-63
2021/12/02 07:35:21;;;;;;;6.45;3.25;;;;;;;22.28;23.69;96058.88;5093142;28;20020;-64
2021/12/02 07:37:49;;;;;;;4.47;3.45;;;;;;;22.54;23.29;96056.41;5093026;28;20032;-68
2021/12/02 07:40:16;;;;;;;4.85;3.63;;;;;;;22.83;23.28;96060.84;5093020;28;20081;-64
2021/12/02 07:42:44;;;;;;;7.07;3.20;;;;;;;22.91;23.27;96053.94;5093131;28;20493;-65
2021/12/02 07:45:11;;;;;;;5.85;3.03;;;;;;;23.02;22.72;96056.38;5093088;28;20032;-66
2021/12/02 07:47:41;;;;;;;6.50;2.88;;;;;;;23.08;22.80;96061.13;5092966;28;20027;-64
2021/12/02 07:50:08;;;;;;;;;;;;;;;23.23;21.70;96058.81;5092071;28;20477;-64
2021/12/02 07:52:39;;;;;;;4.03;3.00;;;;;;;23.59;22.15;96054.50;5093107;28;19912;-65
2021/12/02 07:55:08;;;;;;;;;;;;;;;24.20;21.12;96053.91;5093509;28;20052;-66
2021/12/02 07:57:35;;;;;;;3.60;2.58;;;;;;;24.48;21.46;96059.09;5093000;28;20366;-69
2021/12/02 08:00:01;;;;;;;4.63;3.40;;;;;;;24.51;21.40;96065.94;5092818;28;20543;-66
2021/12/02 08:02:32;;;;;;;3.55;2.65;;;;;;;24.78;20.84;96067.59;5093004;28;20112;-64
2021/12/02 08:04:58;;;;;;;3.92;2.88;;;;;;;25.02;20.66;96059.88;5092892;28;20032;-67
2021/12/02 08:07:24;;;;;;;4.32;2.95;;;;;;;24.92;20.83;96060.81;5092817;28;20030;-64
2021/12/02 08:09:49;;;;;;;5.35;2.63;;;;;;;24.63;21.72;96066.50;5092704;28;20024;-66
2021/12/02 08:12:15;;;;;;;3.92;2.60;;;;;;;24.56;21.24;96064.47;5092722;28;20027;-64
2021/12/02 08:14:41;;;;;;;4.38;2.95;;;;;;;24.25;21.29;96056.91;5092855;28;20028;-65
2021/12/02 08:17:06;;;;;;;2.85;2.47;;;;;;;24.59;21.66;96066.81;5092706;28;20103;-66
2021/12/02 08:19:32;;;;;;;3.10;2.60;;;;;;;24.18;21.90;96054.06;5092637;28;20078;-61
2021/12/02 08:21:58;;;;;;;3.17;2.70;;;;;;;23.73;21.75;96047.81;5092330;28;20490;-64
2021/12/02 08:24:25;;;;;;;3.97;2.95;;;;;;;22.99;23.09;96054.00;5092767;28;20024;-66
2021/12/02 08:26:52;;;;;;;3.15;2.28;;;;;;;22.13;23.82;96048.69;5092631;28;20462;-69
2021/12/02 08:29:17;;;;;;;3.97;2.78;;;;;;;21.27;24.82;96055.50;5092677;28;20439;-63
2021/12/02 08:31:43;;;;;;;4.30;2.83;;;;;;;20.82;25.53;96053.13;5092488;28;20059;-66
2021/12/02 08:34:08;;;;;;;5.97;2.55;;;;;;;20.75;25.18;96054.63;5094842;28;20064;-63
2021/12/02 08:36:44;;;;;;;2.60;2.40;;;;;;;20.38;25.58;96060.47;5096349;28;20119;-66
2021/12/02 08:39:15;;;;;;;2.92;2.50;;;;;;;19.52;27.87;96048.94;5095990;28;20028;-66
2021/12/02 08:41:44;;;;;;;3.33;2.00;;;;;;;18.09;28.93;96047.69;5096043;28;20118;-61
2021/12/02 08:44:11;;;;;;;2.53;2.20;;;;;;;17.11;30.28;96053.06;5096035;28;20382;-66
2021/12/02 08:46:36;;;;;;;4.45;2.58;;;;;;;16.26;32.61;96048.31;5096172;28;20458;-62
2021/12/02 08:49:03;;;;;;;8.20;4.07;;;;;;;16.10;32.98;96043.25;5095983;28;20074;-65
2021/12/02 08:51:29;;;;;;;5.85;2.92;;;;;;;15.96;32.40;96040.69;5095833;28;20355;-61
2021/12/02 08:53:54;;;;;;;3.40;2.45;;;;;;;15.57;33.44;96028.31;5095859;28;20020;-66
2021/12/02 08:56:20;;;;;;;6.63;2.33;;;;;;;14.60;35.70;96026.47;5095855;28;20466;-65
2021/12/02 08:58:46;;;;;;;3.15;2.80;;;;;;;13.69;37.45;96027.59;5095728;28;20016;-66
2021/12/02 09:01:12;;;;;;;3.92;2.75;;;;;;;13.12;38.25;96025.47;5095660;28;20377;-65
2021/12/02 09:03:41;;;;;;;3.13;2.40;;;;;;;12.29;40.15;96031.72;5095712;28;20024;-63
2021/12/02 09:06:09;;;;;;;2.40;2.20;;;;;;;11.85;40.66;96025.19;5095791;28;20016;-65
2021/12/02 09:08:35;;;;;;;3.83;2.40;;;;;;;11.53;41.90;96015.41;5095563;28;20046;-64
2021/12/02 09:11:03;;;;;;;4.25;2.60;;;;;;;11.18;42.95;96004.94;5095438;28;20470;-65
2021/12/02 09:13:28;;;;;;;5.22;2.80;;;;;;;11.29;42.56;96001.81;5095397;28;20024;-63
2021/12/02 09:15:54;;;;;;;4.63;2.58;;;;;;;11.34;42.67;96000.63;5095441;28;20532;-65
2021/12/02 09:18:19;;;;;;;2.45;2.13;;;;;;;11.01;43.34;95996.13;5095433;28;20020;-66
2021/12/02 09:20:45;;;;;;;2.40;1.88;;;;;;;10.85;43.87;95983.81;5094872;28;20143;-63
2021/12/02 09:23:13;;;;;;;2.67;2.00;;;;;;;10.95;43.00;95981.59;5095357;28;20060;-63
2021/12/02 09:25:40;;;;;;;3.25;2.30;;;;;;;11.03;43.64;95982.97;5095303;28;20111;-67
2021/12/02 09:28:06;;;;;;;4.88;2.28;;;;;;;11.14;43.21;95979.84;5095130;28;20474;-64
2021/12/02 09:30:33;;;;;;;2.50;1.95;;;;;;;10.99;42.53;95977.06;5095173;28;20032;-64
2021/12/02 09:32:59;;;;;;;4.00;1.90;;;;;;;10.91;42.87;95974.81;5095104;28;20482;-64
2021/12/02 09:35:25;;;;;;;3.50;2.00;;;;;;;10.74;42.87;95968.63;5094999;28;20098;-65
2021/12/02 09:37:51;;;;;;;3.55;2.00;;;;;;;10.64;43.98;95966.50;5095012;28;20031;-65
2021/12/02 09:40:18;;;;;;;3.00;2.05;;;;;;;10.40;44.29;95962.34;5094879;28;20478;-64
2021/12/02 09:42:45;;;;;;;3.22;1.83;;;;;;;10.40;43.23;95957.09;5095122;28;20531;-65
2021/12/02 09:45:11;;;;;;;3.08;1.95;;;;;;;10.34;42.80;95946.94;5094601;28;20027;-66
2021/12/02 09:47:40;;;;;;;3.17;2.08;;;;;;;10.31;43.42;95944.44;5094991;28;20016;-65
2021/12/02 09:50:14;;;;;;;4.10;2.00;;;;;;;10.38;44.75;95948.47;5094738;28;20800;-62
2021/12/02 09:52:41;;;;;;;2.30;1.83;;;;;;;10.38;45.20;95947.66;5094897;28;20093;-66
2021/12/02 09:57:49;;;;;;;2.92;1.63;;;;;;;10.61;44.50;95949.19;5094752;28;20355;-65
2021/12/02 10:00:19;;;;;;;3.83;2.88;;;;;;;10.67;44.96;95950.66;5094754;28;20062;-63
2021/12/02 10:03:00;;;;;;;4.78;2.65;;;;;;;10.58;46.34;95944.97;5094689;28;20074;-62
2021/12/02 10:05:33;;;;;;;;;;;;;;;10.66;44.88;95944.59;5094929;28;20081;-68
2021/12/02 10:08:03;;;;;;;2.92;2.20;;;;;;;10.81;44.98;95944.78;5094435;28;19919;-63
2021/12/02 10:10:37;;;;;;;4.85;3.08;;;;;;;10.87;44.61;95932.22;5094417;28;20103;-66
2021/12/02 10:13:43;;;;;;;9.07;6.53;;;;;;;11.05;44.79;95941.88;5094368;28;20028;-66
2021/12/02 10:16:10;;;;;;;3.75;2.80;;;;;;;10.96;44.75;95925.69;5093991;28;20043;-63
2021/12/02 10:21:25;;;;;;;5.72;2.13;;;;;;;10.77;43.30;95915.28;5094115;28;20044;-62
2021/12/02 10:23:53;;;;;;;5.07;2.67;;;;;;;10.85;44.03;95902.69;5094133;28;20027;-66
2021/12/02 10:26:21;;;;;;;3.83;2.33;;;;;;;10.90;43.65;95914.69;5094258;28;20024;-66
2021/12/02 10:28:51;;;;;;;3.75;2.40;;;;;;;10.96;45.22;95917.84;5094021;28;20020;-66
2021/12/02 10:31:20;;;;;;;7.93;2.70;;;;;;;11.13;44.65;95916.16;5094020;28;20485;-66
2021/12/02 10:33:51;;;;;;;4.55;2.58;;;;;;;11.14;44.83;95909.16;5093932;28;20085;-63
2021/12/02 10:36:43;;;;;;;4.95;2.60;;;;;;;11.07;45.69;95908.59;5093973;28;20049;-66
2021/12/02 10:39:25;;;;;;;3.97;2.30;;;;;;;11.20;43.13;95901.84;5093793;28;20074;-64
2021/12/02 10:42:20;;;;;;;3.97;2.22;;;;;;;11.10;43.92;95895.38;5093979;28;20068;-65
2021/12/02 10:44:46;;;;;;;4.43;2.50;;;;;;;10.95;nan;95895.22;5092598;28;20047;-62
2021/12/02 10:47:13;;;;;;;3.17;2.33;;;;;;;10.95;45.17;95887.38;5093766;28;20024;-64
2021/12/02 10:49:55;;;;;;;3.78;2.83;;;;;;;11.07;44.79;95880.69;5093604;28;20477;-65
2021/12/02 10:52:26;;;;;;;5.38;2.47;;;;;;;10.98;44.94;95887.22;5093902;28;20024;-66
2021/12/02 10:54:56;;;;;;;;;;;;;;;10.95;43.88;95890.00;5094186;28;20032;-67
2021/12/02 10:57:24;;;;;;;5.88;2.88;;;;;;;10.86;45.37;95879.97;5093129;28;19908;-65
2021/12/02 10:59:54;;;;;;;3.65;2.90;;;;;;;10.80;45.46;95872.44;5093413;28;20063;-64
2021/12/02 11:02:35;;;;;;;2.90;2.40;;;;;;;10.76;47.68;95870.91;5093566;28;20080;-64
2021/12/02 11:05:27;;;;;;;4.93;2.97;;;;;;;10.74;45.96;95870.97;5093638;28;20485;-67
2021/12/02 11:08:02;;;;;;;4.72;3.17;;;;;;;10.71;46.21;95864.13;5093534;28;20055;-66
2021/12/02 11:10:39;;;;;;;4.68;3.00;;;;;;;10.68;45.62;95866.88;5093556;28;20058;-66
2021/12/02 11:13:06;;;;;;;3.95;3.28;;;;;;;10.70;46.23;95861.59;5093337;28;20363;-64
2021/12/02 11:15:34;;;;;;;4.55;2.88;;;;;;;10.71;46.32;95863.28;5093394;28;20093;-65
2021/12/02 11:18:03;;;;;;;4.82;2.55;;;;;;;10.76;46.08;95863.91;5093472;28;20032;-64
2021/12/02 11:20:36;;;;;;;4.45;2.72;;;;;;;10.72;46.14;95864.97;5092013;28;20466;-66
2021/12/02 11:23:06;;;;;;;4.75;2.90;;;;;;;10.79;46.55;95857.66;5093004;28;20048;-64
2021/12/02 11:25:34;;;;;;;5.05;2.78;;;;;;;10.87;46.21;95860.75;5093204;28;20062;-66
2021/12/02 11:28:08;;;;;;;5.00;3.92;;;;;;;10.96;46.45;95859.44;5093230;28;20020;-64
2021/12/02 11:30:36;;;;;;;6.03;3.05;;;;;;;11.07;45.56;95851.88;5093310;28;20028;-61
2021/12/02 11:33:05;;;;;;;4.72;2.80;;;;;;;10.98;45.88;95853.22;5093234;28;20020;-64
2021/12/02 11:35:35;;;;;;;5.80;3.20;;;;;;;10.96;46.41;95841.13;5093273;28;20024;-65
2021/12/02 11:38:09;;;;;;;3.33;2.67;;;;;;;10.90;44.94;95849.28;5093225;28;20397;-67
2021/12/02 11:40:40;;;;;;;4.70;2.72;;;;;;;10.85;46.00;95842.53;5092986;28;20281;-64
2021/12/02 11:43:08;;;;;;;3.78;2.80;;;;;;;10.84;46.12;95840.81;5093052;28;20069;-64
2021/12/02 11:45:43;;;;;;;6.43;2.63;;;;;;;10.94;46.70;95838.59;5093097;28;20024;-67
2021/12/02 11:48:09;;;;;;;3.75;2.78;;;;;;;10.99;45.95;95831.34;5093097;28;20028;-65
2021/12/02 11:50:35;;;;;;;3.40;2.55;;;;;;;11.03;45.05;95834.66;5093097;28;20020;-64
2021/12/02 11:53:01;;;;;;;3.72;2.30;;;;;;;11.09;46.09;95833.50;5093031;28;20096;-65
2021/12/02 11:55:35;;;;;;;3.55;2.78;;;;;;;11.18;45.95;95832.16;5092946;28;20029;-63